Estación Meteorológica Peña el Pijo (Robertgarden) [ 01/30/23 15:14:27 CET ]

Fecha Hora Presion(HPa) Temp (°C) Humedad % Rocio (°C) Viento ( m/s) Direccion Lluvia 1Hora(mm) Lluvia 24H(mm) LLuvia Total(mm)
2012-Feb-03 01:01:20 1004.400 -4.9 59 -11.7         153.32
2012-Feb-03 02:02:41 1004.500 -5.5 63 -11.5         153.32
2012-Feb-03 03:02:48 1004.600 -5.6 61 -11.9         153.32
2012-Feb-03 04:02:42 1004.600 -5.6 63 -11.6         153.32
2012-Feb-03 05:02:46 1004.700 -5.6 63 -11.6         153.32
2012-Feb-03 06:11:10 1004.600 -5.9 63 -11.8         153.32
2012-Feb-03 07:01:14 1005.100 -6.1 65 -11.7         153.32
2012-Feb-03 08:01:18 1006.000 -6.4 62 -12.5         153.32
2012-Feb-03 09:01:13 1006.400 -6.4 60 -12.9         153.32
2012-Feb-03 10:01:13 1006.800 -4.5 56 -12.0         153.32
2012-Feb-03 11:01:11 1007.200 -2.7 53 -11.0         153.32
2012-Feb-03 12:01:17 1007.300 -1.4 46 -11.6 1.4 WNW     153.32
2012-Feb-03 13:01:13 1007.200 0.8 41 -11.0 0.4 NW     153.32
2012-Feb-03 14:01:13 1007.200 1.8 36 -11.8         153.32
2012-Feb-03 15:01:16 1007.600 2.2 31 -13.3         153.32
2012-Feb-03 16:01:14 1008.000 2.4 29 -13.9         153.32
2012-Feb-03 17:01:13 1008.200 1.2 27 -15.9         153.32
2012-Feb-03 18:01:17 1008.900 -0.7 27 -17.6         153.32
2012-Feb-03 19:01:13 1009.600 -1.6 29 -17.4 1.4 SSW     153.32
2012-Feb-03 20:01:12 1010.300 -2.5 30 -17.8         153.32
2012-Feb-03 21:01:12 1010.800 -3.4 31 -18.2         153.32
2012-Feb-03 22:01:15 1011.300 -3.9 31 -18.6         153.32
2012-Feb-03 23:01:13 1012.000 -4.7 32 -18.9 1.4 SSW     153.32

Temperatura Máxima:    Temperatura Mínima:-6°
Presión Máxima:1012.000 Hpa    Presión Mínima:1004.400 Hpa


Volver